sensor_id;sensor_type;location;lat;lon;timestamp;pressure;altitude;pressure_sealevel;temperature;humidity
52441;BME280;39611;46.062;8.950;2023-04-09T00:01:28;96689.88;;;9.92;59.92
52441;BME280;39611;46.062;8.950;2023-04-09T00:03:55;96688.56;;;9.84;59.83
52441;BME280;39611;46.062;8.950;2023-04-09T00:06:21;96692.25;;;9.88;59.99
52441;BME280;39611;46.062;8.950;2023-04-09T00:08:48;96690.91;;;9.85;60.10
52441;BME280;39611;46.062;8.950;2023-04-09T00:11:14;96689.88;;;9.81;60.21
52441;BME280;39611;46.062;8.950;2023-04-09T00:13:41;96695.16;;;9.76;60.41
52441;BME280;39611;46.062;8.950;2023-04-09T00:16:07;96694.06;;;9.72;60.32
52441;BME280;39611;46.062;8.950;2023-04-09T00:18:34;96689.88;;;9.76;60.31
52441;BME280;39611;46.062;8.950;2023-04-09T00:21:01;96697.53;;;9.73;60.65
52441;BME280;39611;46.062;8.950;2023-04-09T00:23:27;96693.56;;;9.65;60.67
52441;BME280;39611;46.062;8.950;2023-04-09T00:25:54;96699.84;;;9.59;60.54
52441;BME280;39611;46.062;8.950;2023-04-09T00:28:21;96698.78;;;9.50;60.56
52441;BME280;39611;46.062;8.950;2023-04-09T00:30:47;96694.03;;;9.52;60.90
52441;BME280;39611;46.062;8.950;2023-04-09T00:33:14;96697.19;;;9.54;61.29
52441;BME280;39611;46.062;8.950;2023-04-09T00:35:40;96699.28;;;9.47;61.80
52441;BME280;39611;46.062;8.950;2023-04-09T00:38:07;96703.00;;;9.46;61.04
52441;BME280;39611;46.062;8.950;2023-04-09T00:40:34;96696.91;;;9.40;61.18
52441;BME280;39611;46.062;8.950;2023-04-09T00:43:00;96699.56;;;9.40;60.80
52441;BME280;39611;46.062;8.950;2023-04-09T00:45:27;96691.09;;;9.38;61.02
52441;BME280;39611;46.062;8.950;2023-04-09T00:47:54;96703.75;;;9.41;61.11
52441;BME280;39611;46.062;8.950;2023-04-09T00:50:21;96704.28;;;9.33;61.22
52441;BME280;39611;46.062;8.950;2023-04-09T00:52:48;96696.59;;;9.21;61.33
52441;BME280;39611;46.062;8.950;2023-04-09T00:55:15;96698.72;;;9.24;60.59
52441;BME280;39611;46.062;8.950;2023-04-09T00:57:43;96702.38;;;9.23;60.85
52441;BME280;39611;46.062;8.950;2023-04-09T01:00:10;96704.97;;;9.13;60.79
52441;BME280;39611;46.062;8.950;2023-04-09T01:02:39;96704.97;;;9.13;60.58
52441;BME280;39611;46.062;8.950;2023-04-09T01:05:06;96709.75;;;9.16;60.59
52441;BME280;39611;46.062;8.950;2023-04-09T01:08:00;96713.94;;;9.12;60.63
52441;BME280;39611;46.062;8.950;2023-04-09T01:10:30;96713.41;;;9.10;60.86
52441;BME280;39611;46.062;8.950;2023-04-09T01:15:29;96713.41;;;9.10;60.16
52441;BME280;39611;46.062;8.950;2023-04-09T01:18:05;96702.31;;;9.08;60.56
52441;BME280;39611;46.062;8.950;2023-04-09T01:20:41;96704.41;;;9.01;60.94
52441;BME280;39611;46.062;8.950;2023-04-09T01:26:02;96714.94;;;8.95;60.74
52441;BME280;39611;46.062;8.950;2023-04-09T01:28:35;96706.47;;;8.88;60.53
52441;BME280;39611;46.062;8.950;2023-04-09T01:31:10;96707.78;;;8.91;59.63
52441;BME280;39611;46.062;8.950;2023-04-09T01:33:40;96714.63;;;8.92;60.77
52441;BME280;39611;46.062;8.950;2023-04-09T01:36:08;96715.91;;;8.84;60.79
52441;BME280;39611;46.062;8.950;2023-04-09T01:38:38;96718.03;;;8.82;61.00
52441;BME280;39611;46.062;8.950;2023-04-09T01:41:05;96723.34;;;8.87;60.62
52441;BME280;39611;46.062;8.950;2023-04-09T01:43:33;96718.06;;;8.87;60.81
52441;BME280;39611;46.062;8.950;2023-04-09T01:46:01;96713.28;;;8.84;60.54
52441;BME280;39611;46.062;8.950;2023-04-09T01:48:29;96713.78;;;8.81;60.98
52441;BME280;39611;46.062;8.950;2023-04-09T01:50:57;96713.50;;;8.72;61.20
52441;BME280;39611;46.062;8.950;2023-04-09T01:53:24;96719.00;;;8.71;60.78
52441;BME280;39611;46.062;8.950;2023-04-09T01:55:54;96710.53;;;8.69;60.48
52441;BME280;39611;46.062;8.950;2023-04-09T01:58:24;96719.00;;;8.71;60.08
52441;BME280;39611;46.062;8.950;2023-04-09T02:00:56;96710.84;;;8.72;60.15
52441;BME280;39611;46.062;8.950;2023-04-09T02:03:27;96711.06;;;8.66;60.73
52441;BME280;39611;46.062;8.950;2023-04-09T02:06:08;96711.34;;;8.64;60.59
52441;BME280;39611;46.062;8.950;2023-04-09T02:08:37;96710.72;;;8.52;60.38
52441;BME280;39611;46.062;8.950;2023-04-09T02:11:08;96712.03;;;8.49;60.71
52441;BME280;39611;46.062;8.950;2023-04-09T02:13:36;96709.13;;;8.51;61.11
52441;BME280;39611;46.062;8.950;2023-04-09T02:16:06;96710.00;;;8.62;60.95
52441;BME280;39611;46.062;8.950;2023-04-09T02:18:33;96710.22;;;8.55;61.98
52441;BME280;39611;46.062;8.950;2023-04-09T02:20:59;96707.31;;;8.57;62.21
52441;BME280;39611;46.062;8.950;2023-04-09T02:23:26;96703.91;;;8.61;61.48
52441;BME280;39611;46.062;8.950;2023-04-09T02:25:53;96704.38;;;8.53;61.85
52441;BME280;39611;46.062;8.950;2023-04-09T02:28:20;96712.56;;;8.51;62.13
52441;BME280;39611;46.062;8.950;2023-04-09T02:30:46;96712.53;;;8.46;62.54
52441;BME280;39611;46.062;8.950;2023-04-09T02:33:13;96713.81;;;8.44;62.40
52441;BME280;39611;46.062;8.950;2023-04-09T02:35:41;96713.22;;;8.37;62.47
52441;BME280;39611;46.062;8.950;2023-04-09T02:38:08;96714.75;;;8.32;63.24
52441;BME280;39611;46.062;8.950;2023-04-09T02:40:39;96712.34;;;8.26;62.74
52441;BME280;39611;46.062;8.950;2023-04-09T02:43:07;96716.09;;;8.35;62.63
52441;BME280;39611;46.062;8.950;2023-04-09T02:45:34;96722.38;;;8.29;62.97
52441;BME280;39611;46.062;8.950;2023-04-09T02:48:01;96716.50;;;8.22;62.95
52441;BME280;39611;46.062;8.950;2023-04-09T02:50:27;96718.59;;;8.15;63.73
52441;BME280;39611;46.062;8.950;2023-04-09T02:52:54;96721.19;;;8.09;63.89
52441;BME280;39611;46.062;8.950;2023-04-09T02:55:21;96720.63;;;8.07;63.99
52441;BME280;39611;46.062;8.950;2023-04-09T02:57:48;96715.41;;;8.13;64.10
52441;BME280;39611;46.062;8.950;2023-04-09T03:00:14;96719.56;;;8.08;63.99
52441;BME280;39611;46.062;8.950;2023-04-09T03:02:41;96720.03;;;8.00;64.57
52441;BME280;39611;46.062;8.950;2023-04-09T03:05:08;96722.00;;;8.15;63.98
52441;BME280;39611;46.062;8.950;2023-04-09T03:07:35;96715.94;;;8.15;64.04
52441;BME280;39611;46.062;8.950;2023-04-09T03:10:02;96715.63;;;8.11;63.94
52441;BME280;39611;46.062;8.950;2023-04-09T03:12:28;96723.63;;;7.89;64.90
52441;BME280;39611;46.062;8.950;2023-04-09T03:14:55;96723.06;;;7.87;65.30
52441;BME280;39611;46.062;8.950;2023-04-09T03:17:21;96726.78;;;7.91;64.93
52441;BME280;39611;46.062;8.950;2023-04-09T03:19:51;96723.22;;;8.02;65.12
52441;BME280;39611;46.062;8.950;2023-04-09T03:22:17;96724.00;;;8.03;65.42
52441;BME280;39611;46.062;8.950;2023-04-09T03:24:44;96723.22;;;8.02;65.21
52441;BME280;39611;46.062;8.950;2023-04-09T03:27:11;96719.25;;;8.00;65.48
52441;BME280;39611;46.062;8.950;2023-04-09T03:29:37;96720.03;;;8.00;65.39
52441;BME280;39611;46.062;8.950;2023-04-09T03:32:04;96723.88;;;7.87;65.55
52441;BME280;39611;46.062;8.950;2023-04-09T03:34:31;96720.16;;;7.88;65.42
52441;BME280;39611;46.062;8.950;2023-04-09T03:36:57;96722.63;;;7.95;65.20
52441;BME280;39611;46.062;8.950;2023-04-09T03:39:24;96724.91;;;7.86;65.31
52441;BME280;39611;46.062;8.950;2023-04-09T03:41:51;96725.38;;;7.78;65.63
52441;BME280;39611;46.062;8.950;2023-04-09T03:44:18;96724.75;;;7.71;66.34
52441;BME280;39611;46.062;8.950;2023-04-09T03:46:45;96725.50;;;7.66;66.02
52441;BME280;39611;46.062;8.950;2023-04-09T03:49:11;96724.03;;;7.76;65.30
52441;BME280;39611;46.062;8.950;2023-04-09T03:51:38;96724.25;;;7.74;65.99
52441;BME280;39611;46.062;8.950;2023-04-09T03:54:04;96726.06;;;7.69;66.05
52441;BME280;39611;46.062;8.950;2023-04-09T03:56:31;96726.88;;;7.47;66.71
52441;BME280;39611;46.062;8.950;2023-04-09T03:58:57;96722.91;;;7.44;66.80
52441;BME280;39611;46.062;8.950;2023-04-09T04:01:24;96727.19;;;7.51;66.67
52441;BME280;39611;46.062;8.950;2023-04-09T04:03:51;96724.66;;;7.61;65.74
52441;BME280;39611;46.062;8.950;2023-04-09T04:06:18;96731.38;;;7.74;65.26
52441;BME280;39611;46.062;8.950;2023-04-09T04:08:44;96744.00;;;7.72;66.12
52441;BME280;39611;46.062;8.950;2023-04-09T04:11:11;96737.13;;;7.71;66.08
52441;BME280;39611;46.062;8.950;2023-04-09T04:13:37;96739.22;;;7.69;65.67
52441;BME280;39611;46.062;8.950;2023-04-09T04:16:08;96745.16;;;7.59;65.23
52441;BME280;39611;46.062;8.950;2023-04-09T04:18:35;96735.53;;;7.70;65.35
52441;BME280;39611;46.062;8.950;2023-04-09T04:21:02;96743.66;;;7.63;66.02
52441;BME280;39611;46.062;8.950;2023-04-09T04:23:29;96745.94;;;7.59;66.13
52441;BME280;39611;46.062;8.950;2023-04-09T04:25:56;96743.88;;;7.61;65.97
52441;BME280;39611;46.062;8.950;2023-04-09T04:28:23;96737.50;;;7.57;66.01
52441;BME280;39611;46.062;8.950;2023-04-09T04:30:50;96742.75;;;7.57;66.39
52441;BME280;39611;46.062;8.950;2023-04-09T04:33:16;96758.22;;;7.49;66.81
52441;BME280;39611;46.062;8.950;2023-04-09T04:35:43;96749.16;;;7.61;65.17
52441;BME280;39611;46.062;8.950;2023-04-09T04:38:10;96761.19;;;7.57;65.23
52441;BME280;39611;46.062;8.950;2023-04-09T04:40:37;96745.09;;;7.54;66.42
52441;BME280;39611;46.062;8.950;2023-04-09T04:43:03;96760.22;;;7.63;65.79
52441;BME280;39611;46.062;8.950;2023-04-09T04:45:30;96758.69;;;7.68;65.57
52441;BME280;39611;46.062;8.950;2023-04-09T04:47:57;96758.16;;;7.65;65.36
52441;BME280;39611;46.062;8.950;2023-04-09T04:50:23;96758.63;;;7.62;65.53
52441;BME280;39611;46.062;8.950;2023-04-09T04:52:50;96756.44;;;7.54;65.59
52441;BME280;39611;46.062;8.950;2023-04-09T04:55:17;96744.88;;;7.55;66.26
52441;BME280;39611;46.062;8.950;2023-04-09T04:57:43;96756.44;;;7.54;65.94
52441;BME280;39611;46.062;8.950;2023-04-09T05:00:10;96762.13;;;7.46;66.09
52441;BME280;39611;46.062;8.950;2023-04-09T05:02:37;96770.47;;;7.38;66.48
52441;BME280;39611;46.062;8.950;2023-04-09T05:05:04;96770.16;;;7.34;66.88
52441;BME280;39611;46.062;8.950;2023-04-09T05:07:32;96765.31;;;7.48;66.05
52441;BME280;39611;46.062;8.950;2023-04-09T05:09:59;96765.56;;;7.47;66.21
52441;BME280;39611;46.062;8.950;2023-04-09T05:12:25;96774.72;;;7.44;66.39
52441;BME280;39611;46.062;8.950;2023-04-09T05:14:52;96778.22;;;7.28;67.61
52441;BME280;39611;46.062;8.950;2023-04-09T05:17:18;96778.53;;;7.31;67.34
52441;BME280;39611;46.062;8.950;2023-04-09T05:19:50;96780.50;;;7.41;67.48
52441;BME280;39611;46.062;8.950;2023-04-09T05:22:18;96776.56;;;7.43;67.11
52441;BME280;39611;46.062;8.950;2023-04-09T05:24:44;96780.00;;;7.44;67.99
52441;BME280;39611;46.062;8.950;2023-04-09T05:27:11;96786.13;;;7.28;67.95
52441;BME280;39611;46.062;8.950;2023-04-09T05:29:37;96784.03;;;7.30;67.91
52441;BME280;39611;46.062;8.950;2023-04-09T05:32:04;96785.81;;;7.46;67.72
52441;BME280;39611;46.062;8.950;2023-04-09T05:34:32;96784.97;;;7.40;68.23
52441;BME280;39611;46.062;8.950;2023-04-09T05:36:58;96789.50;;;7.45;68.17
52441;BME280;39611;46.062;8.950;2023-04-09T05:39:25;96797.69;;;7.49;67.74
52441;BME280;39611;46.062;8.950;2023-04-09T05:41:51;96797.13;;;7.47;67.90
52441;BME280;39611;46.062;8.950;2023-04-09T05:44:18;96793.22;;;7.49;67.93
52441;BME280;39611;46.062;8.950;2023-04-09T05:46:45;96790.84;;;7.48;67.63
52441;BME280;39611;46.062;8.950;2023-04-09T05:49:11;96785.44;;;7.59;67.61
52441;BME280;39611;46.062;8.950;2023-04-09T05:51:38;96801.44;;;7.53;68.52
52441;BME280;39611;46.062;8.950;2023-04-09T05:54:04;96805.84;;;7.47;68.51
52441;BME280;39611;46.062;8.950;2023-04-09T05:56:31;96807.22;;;7.33;68.50
52441;BME280;39611;46.062;8.950;2023-04-09T05:58:57;96800.47;;;7.37;68.12
52441;BME280;39611;46.062;8.950;2023-04-09T06:01:24;96807.94;;;7.45;68.15
52441;BME280;39611;46.062;8.950;2023-04-09T06:03:50;96800.69;;;7.57;68.39
52441;BME280;39611;46.062;8.950;2023-04-09T06:06:20;96805.66;;;7.54;67.60
52441;BME280;39611;46.062;8.950;2023-04-09T06:08:47;96809.47;;;7.63;67.44
52441;BME280;39611;46.062;8.950;2023-04-09T06:11:13;96796.66;;;7.72;68.59
52441;BME280;39611;46.062;8.950;2023-04-09T06:13:40;96799.84;;;7.74;68.57
52441;BME280;39611;46.062;8.950;2023-04-09T06:16:07;96807.81;;;7.79;69.12
52441;BME280;39611;46.062;8.950;2023-04-09T06:18:35;96807.41;;;7.92;68.18
52441;BME280;39611;46.062;8.950;2023-04-09T06:23:29;96803.91;;;9.05;62.88
52441;BME280;39611;46.062;8.950;2023-04-09T06:25:56;96805.44;;;8.96;62.23
52441;BME280;39611;46.062;8.950;2023-04-09T06:28:23;96811.13;;;8.78;62.20
52441;BME280;39611;46.062;8.950;2023-04-09T06:30:49;96809.59;;;9.29;60.40
52441;BME280;39611;46.062;8.950;2023-04-09T06:33:16;96808.47;;;9.73;58.48
52441;BME280;39611;46.062;8.950;2023-04-09T06:35:43;96807.53;;;10.20;56.74
52441;BME280;39611;46.062;8.950;2023-04-09T06:38:09;96809.97;;;10.57;56.51
52441;BME280;39611;46.062;8.950;2023-04-09T06:40:37;96812.38;;;10.74;54.99
52441;BME280;39611;46.062;8.950;2023-04-09T06:43:04;96804.41;;;10.94;54.46
52441;BME280;39611;46.062;8.950;2023-04-09T06:45:32;96809.19;;;11.03;54.39
52441;BME280;39611;46.062;8.950;2023-04-09T06:47:59;96809.69;;;11.10;54.55
52441;BME280;39611;46.062;8.950;2023-04-09T06:50:26;96809.19;;;11.08;54.36
52441;BME280;39611;46.062;8.950;2023-04-09T06:52:53;96801.72;;;11.10;54.56
52441;BME280;39611;46.062;8.950;2023-04-09T06:55:20;96817.34;;;11.22;54.32
52441;BME280;39611;46.062;8.950;2023-04-09T06:57:47;96811.25;;;11.21;54.41
52441;BME280;39611;46.062;8.950;2023-04-09T07:00:13;96807.00;;;11.25;54.20
52441;BME280;39611;46.062;8.950;2023-04-09T07:02:40;96816.25;;;11.33;53.61
52441;BME280;39611;46.062;8.950;2023-04-09T07:05:07;96819.44;;;11.35;53.44
52441;BME280;39611;46.062;8.950;2023-04-09T07:07:34;96814.38;;;11.33;53.11
52441;BME280;39611;46.062;8.950;2023-04-09T07:10:01;96814.63;;;11.47;54.03
52441;BME280;39611;46.062;8.950;2023-04-09T07:12:31;96816.47;;;11.57;53.03
52441;BME280;39611;46.062;8.950;2023-04-09T07:15:02;96815.09;;;11.65;53.33
52441;BME280;39611;46.062;8.950;2023-04-09T07:17:29;96809.75;;;11.70;52.07
52441;BME280;39611;46.062;8.950;2023-04-09T07:19:56;96826.16;;;11.82;52.36
52441;BME280;39611;46.062;8.950;2023-04-09T07:22:24;96820.31;;;11.85;51.36
52441;BME280;39611;46.062;8.950;2023-04-09T07:24:52;96814.22;;;11.85;52.34
52441;BME280;39611;46.062;8.950;2023-04-09T07:27:23;96812.34;;;11.95;51.67
52441;BME280;39611;46.062;8.950;2023-04-09T07:29:50;96809.59;;;12.11;51.44
52441;BME280;39611;46.062;8.950;2023-04-09T07:32:16;96806.66;;;12.17;50.22
52441;BME280;39611;46.062;8.950;2023-04-09T07:34:43;96811.13;;;12.27;50.31
52441;BME280;39611;46.062;8.950;2023-04-09T07:37:09;96810.50;;;12.40;49.67
52441;BME280;39611;46.062;8.950;2023-04-09T07:39:37;96813.38;;;12.44;49.32
52441;BME280;39611;46.062;8.950;2023-04-09T07:42:04;96811.50;;;12.44;50.45
52441;BME280;39611;46.062;8.950;2023-04-09T07:44:35;96816.25;;;12.48;50.21
52441;BME280;39611;46.062;8.950;2023-04-09T07:47:03;96812.00;;;12.52;50.66
52441;BME280;39611;46.062;8.950;2023-04-09T07:49:30;96822.06;;;12.55;51.14
52441;BME280;39611;46.062;8.950;2023-04-09T07:51:58;96814.69;;;12.46;51.19
52441;BME280;39611;46.062;8.950;2023-04-09T07:54:25;96810.47;;;12.45;51.66
52441;BME280;39611;46.062;8.950;2023-04-09T07:56:51;96807.31;;;12.38;51.78
52441;BME280;39611;46.062;8.950;2023-04-09T07:59:18;96819.09;;;12.22;53.03
52441;BME280;39611;46.062;8.950;2023-04-09T08:01:44;96810.59;;;12.25;52.42
52441;BME280;39611;46.062;8.950;2023-04-09T08:04:12;96822.81;;;12.21;53.54
52441;BME280;39611;46.062;8.950;2023-04-09T08:06:39;96817.78;;;12.19;54.23
52441;BME280;39611;46.062;8.950;2023-04-09T08:09:06;96820.44;;;12.19;53.74
52441;BME280;39611;46.062;8.950;2023-04-09T08:11:33;96823.91;;;12.15;54.50
52441;BME280;39611;46.062;8.950;2023-04-09T08:13:59;96824.44;;;12.17;54.01
52441;BME280;39611;46.062;8.950;2023-04-09T08:16:28;96822.31;;;12.14;54.69
52441;BME280;39611;46.062;8.950;2023-04-09T08:18:56;96826.31;;;12.06;55.20
52441;BME280;39611;46.062;8.950;2023-04-09T08:21:22;96826.09;;;12.02;54.34
52441;BME280;39611;46.062;8.950;2023-04-09T08:23:49;96821.84;;;12.07;55.09
52441;BME280;39611;46.062;8.950;2023-04-09T08:26:16;96827.66;;;12.03;55.65
52441;BME280;39611;46.062;8.950;2023-04-09T08:28:43;96825.59;;;11.95;55.47
52441;BME280;39611;46.062;8.950;2023-04-09T08:31:10;96818.72;;;11.94;55.83
52441;BME280;39611;46.062;8.950;2023-04-09T08:33:36;96818.66;;;12.05;56.75
52441;BME280;39611;46.062;8.950;2023-04-09T08:36:07;96823.41;;;12.08;55.60
52441;BME280;39611;46.062;8.950;2023-04-09T08:38:33;96831.34;;;12.13;54.27
52441;BME280;39611;46.062;8.950;2023-04-09T08:41:00;96819.41;;;12.15;54.64
52441;BME280;39611;46.062;8.950;2023-04-09T08:43:27;96826.53;;;12.20;54.50
52441;BME280;39611;46.062;8.950;2023-04-09T08:46:14;96832.88;;;12.24;52.93
52441;BME280;39611;46.062;8.950;2023-04-09T08:48:45;96820.19;;;12.16;51.34
52441;BME280;39611;46.062;8.950;2023-04-09T08:51:16;96820.19;;;12.16;52.81
52441;BME280;39611;46.062;8.950;2023-04-09T08:53:44;96822.31;;;12.14;54.04
52441;BME280;39611;46.062;8.950;2023-04-09T08:56:15;96818.84;;;12.18;53.57
52441;BME280;39611;46.062;8.950;2023-04-09T08:58:43;96818.78;;;12.29;54.48
52441;BME280;39611;46.062;8.950;2023-04-09T09:01:23;96821.19;;;12.30;54.47
52441;BME280;39611;46.062;8.950;2023-04-09T09:03:58;96822.44;;;12.38;54.64
52441;BME280;39611;46.062;8.950;2023-04-09T09:06:29;96822.69;;;12.41;55.74
52441;BME280;39611;46.062;8.950;2023-04-09T09:09:08;96822.09;;;12.50;53.47
52441;BME280;39611;46.062;8.950;2023-04-09T09:11:42;96819.44;;;12.50;53.59
52441;BME280;39611;46.062;8.950;2023-04-09T09:14:14;96821.50;;;12.58;54.91
52441;BME280;39611;46.062;8.950;2023-04-09T09:16:43;96814.59;;;12.62;54.28
52441;BME280;39611;46.062;8.950;2023-04-09T09:22:00;96812.75;;;12.57;53.49
52441;BME280;39611;46.062;8.950;2023-04-09T09:24:27;96815.28;;;12.73;53.19
52441;BME280;39611;46.062;8.950;2023-04-09T09:26:54;96812.41;;;12.69;52.72
52441;BME280;39611;46.062;8.950;2023-04-09T09:29:21;96808.97;;;12.68;52.11
52441;BME280;39611;46.062;8.950;2023-04-09T09:31:51;96804.78;;;12.57;51.51
52441;BME280;39611;46.062;8.950;2023-04-09T09:34:19;96811.88;;;12.67;52.62
52441;BME280;39611;46.062;8.950;2023-04-09T09:36:46;96807.66;;;12.66;52.39
52441;BME280;39611;46.062;8.950;2023-04-09T09:39:14;96811.88;;;12.67;52.19
52441;BME280;39611;46.062;8.950;2023-04-09T09:41:43;96795.41;;;12.70;52.32
52441;BME280;39611;46.062;8.950;2023-04-09T09:44:12;96794.25;;;12.81;52.62
52441;BME280;39611;46.062;8.950;2023-04-09T09:46:55;96794.25;;;12.81;51.91
52441;BME280;39611;46.062;8.950;2023-04-09T09:49:22;96785.44;;;12.86;51.94
52441;BME280;39611;46.062;8.950;2023-04-09T09:51:50;96783.53;;;12.92;51.57
52441;BME280;39611;46.062;8.950;2023-04-09T09:54:21;96786.94;;;12.97;50.34
52441;BME280;39611;46.062;8.950;2023-04-09T09:56:51;96789.03;;;13.00;49.70
52441;BME280;39611;46.062;8.950;2023-04-09T09:59:22;96792.78;;;12.94;49.38
52441;BME280;39611;46.062;8.950;2023-04-09T10:01:58;96791.41;;;13.02;49.01
52441;BME280;39611;46.062;8.950;2023-04-09T10:04:28;96789.59;;;12.97;48.33
52441;BME280;39611;46.062;8.950;2023-04-09T10:06:55;96789.59;;;12.97;49.20
52441;BME280;39611;46.062;8.950;2023-04-09T10:09:22;96781.69;;;12.92;49.63
52441;BME280;39611;46.062;8.950;2023-04-09T10:11:49;96777.84;;;13.03;49.91
52441;BME280;39611;46.062;8.950;2023-04-09T10:14:16;96778.88;;;13.07;48.65
52441;BME280;39611;46.062;8.950;2023-04-09T10:16:45;96786.09;;;13.02;47.82
52441;BME280;39611;46.062;8.950;2023-04-09T10:19:11;96781.06;;;13.00;47.82
52441;BME280;39611;46.062;8.950;2023-04-09T10:24:13;96767.97;;;13.09;50.23
52441;BME280;39611;46.062;8.950;2023-04-09T10:26:42;96766.34;;;13.13;49.94
52441;BME280;39611;46.062;8.950;2023-04-09T10:29:14;96768.34;;;13.26;49.06
52441;BME280;39611;46.062;8.950;2023-04-09T10:31:52;96761.28;;;13.41;50.42
52441;BME280;39611;46.062;8.950;2023-04-09T10:34:25;96750.38;;;13.42;51.01
52441;BME280;39611;46.062;8.950;2023-04-09T10:36:56;96754.13;;;13.41;48.72
52441;BME280;39611;46.062;8.950;2023-04-09T10:39:27;96753.19;;;13.51;49.18
52441;BME280;39611;46.062;8.950;2023-04-09T10:41:55;96744.16;;;13.52;48.30
52441;BME280;39611;46.062;8.950;2023-04-09T10:44:26;96735.88;;;13.53;48.19
52441;BME280;39611;46.062;8.950;2023-04-09T10:46:53;96745.09;;;13.61;49.45
52441;BME280;39611;46.062;8.950;2023-04-09T10:49:25;96738.19;;;13.60;49.44
52441;BME280;39611;46.062;8.950;2023-04-09T10:52:10;96732.81;;;13.65;48.38
52441;BME280;39611;46.062;8.950;2023-04-09T10:54:41;96734.13;;;13.68;47.43
52441;BME280;39611;46.062;8.950;2023-04-09T10:57:10;96729.06;;;13.66;47.32
52441;BME280;39611;46.062;8.950;2023-04-09T10:59:43;96727.44;;;13.70;48.99
52441;BME280;39611;46.062;8.950;2023-04-09T11:02:36;96720.25;;;13.71;47.35
52441;BME280;39611;46.062;8.950;2023-04-09T11:08:07;96709.25;;;13.77;47.75
52441;BME280;39611;46.062;8.950;2023-04-09T11:10:36;96703.78;;;13.88;48.62
52441;BME280;39611;46.062;8.950;2023-04-09T11:13:03;96713.84;;;13.91;48.91
52441;BME280;39611;46.062;8.950;2023-04-09T11:15:31;96708.53;;;13.91;49.54
52441;BME280;39611;46.062;8.950;2023-04-09T11:17:59;96706.66;;;13.91;46.91
52441;BME280;39611;46.062;8.950;2023-04-09T11:20:27;96708.47;;;13.96;48.01
52441;BME280;39611;46.062;8.950;2023-04-09T11:22:54;96705.88;;;13.91;48.71
52441;BME280;39611;46.062;8.950;2023-04-09T11:25:23;96702.22;;;13.87;48.41
52441;BME280;39611;46.062;8.950;2023-04-09T11:27:50;96705.00;;;13.95;47.44
52441;BME280;39611;46.062;8.950;2023-04-09T11:30:16;96689.13;;;13.90;45.34
52441;BME280;39611;46.062;8.950;2023-04-09T11:32:43;96695.25;;;13.91;47.10
52441;BME280;39611;46.062;8.950;2023-04-09T11:35:20;96690.25;;;14.03;47.42
52441;BME280;39611;46.062;8.950;2023-04-09T11:37:48;96690.91;;;14.14;47.49
52441;BME280;39611;46.062;8.950;2023-04-09T11:40:23;96692.28;;;14.11;47.79
52441;BME280;39611;46.062;8.950;2023-04-09T11:42:52;96685.88;;;14.12;47.11
52441;BME280;39611;46.062;8.950;2023-04-09T11:45:21;96676.72;;;14.18;47.87
52441;BME280;39611;46.062;8.950;2023-04-09T11:47:48;96681.25;;;14.18;46.96
52441;BME280;39611;46.062;8.950;2023-04-09T11:50:16;96671.81;;;14.26;46.11
52441;BME280;39611;46.062;8.950;2023-04-09T11:52:44;96680.09;;;14.24;46.33
52441;BME280;39611;46.062;8.950;2023-04-09T11:55:11;96684.09;;;14.40;45.01
52441;BME280;39611;46.062;8.950;2023-04-09T11:57:47;96671.94;;;14.34;45.03
52441;BME280;39611;46.062;8.950;2023-04-09T12:00:16;96671.75;;;14.45;44.33
52441;BME280;39611;46.062;8.950;2023-04-09T12:02:44;96670.47;;;14.42;45.13
52441;BME280;39611;46.062;8.950;2023-04-09T12:05:20;96669.91;;;14.45;45.39
52441;BME280;39611;46.062;8.950;2023-04-09T12:07:47;96672.56;;;14.45;44.32
52441;BME280;39611;46.062;8.950;2023-04-09T12:10:26;96674.66;;;14.48;43.12
52441;BME280;39611;46.062;8.950;2023-04-09T12:12:53;96671.47;;;14.46;45.49
52441;BME280;39611;46.062;8.950;2023-04-09T12:15:23;96664.19;;;14.38;42.97
52441;BME280;39611;46.062;8.950;2023-04-09T12:17:52;96662.50;;;14.42;43.17
52441;BME280;39611;46.062;8.950;2023-04-09T12:20:34;96663.59;;;14.41;43.30
52441;BME280;39611;46.062;8.950;2023-04-09T12:23:03;96660.56;;;14.48;44.25
52441;BME280;39611;46.062;8.950;2023-04-09T12:25:33;96659.31;;;14.59;45.40
52441;BME280;39611;46.062;8.950;2023-04-09T12:28:02;96659.50;;;14.62;45.96
52441;BME280;39611;46.062;8.950;2023-04-09T12:30:29;96666.00;;;14.56;44.76
52441;BME280;39611;46.062;8.950;2023-04-09T12:32:57;96659.59;;;14.57;45.74
52441;BME280;39611;46.062;8.950;2023-04-09T12:35:24;96652.06;;;14.46;43.93
52441;BME280;39611;46.062;8.950;2023-04-09T12:37:51;96652.50;;;14.53;44.55
52441;BME280;39611;46.062;8.950;2023-04-09T12:40:18;96648.94;;;14.57;44.45
52441;BME280;39611;46.062;8.950;2023-04-09T12:42:45;96648.06;;;14.62;42.73
52441;BME280;39611;46.062;8.950;2023-04-09T12:45:14;96651.00;;;14.60;43.76
52441;BME280;39611;46.062;8.950;2023-04-09T12:47:41;96649.16;;;14.75;43.04
52441;BME280;39611;46.062;8.950;2023-04-09T12:50:08;96647.69;;;14.69;42.67
52441;BME280;39611;46.062;8.950;2023-04-09T12:52:35;96653.03;;;14.69;42.81
52441;BME280;39611;46.062;8.950;2023-04-09T12:55:02;96639.63;;;14.74;43.20
52441;BME280;39611;46.062;8.950;2023-04-09T12:57:29;96636.44;;;14.85;43.92
52441;BME280;39611;46.062;8.950;2023-04-09T12:59:56;96642.56;;;14.86;44.15
52441;BME280;39611;46.062;8.950;2023-04-09T13:02:22;96637.81;;;14.83;44.48
52441;BME280;39611;46.062;8.950;2023-04-09T13:04:50;96634.75;;;14.76;44.74
52441;BME280;39611;46.062;8.950;2023-04-09T13:07:18;96623.22;;;14.67;44.15
52441;BME280;39611;46.062;8.950;2023-04-09T13:09:46;96631.13;;;14.72;43.53
52441;BME280;39611;46.062;8.950;2023-04-09T13:12:13;96632.09;;;14.76;44.37
52441;BME280;39611;46.062;8.950;2023-04-09T13:14:45;96616.13;;;14.76;43.81
52441;BME280;39611;46.062;8.950;2023-04-09T13:17:11;96614.56;;;14.75;42.97
52441;BME280;39611;46.062;8.950;2023-04-09T13:19:38;96615.25;;;14.80;42.53
52441;BME280;39611;46.062;8.950;2023-04-09T13:22:08;96615.94;;;14.86;43.14
52441;BME280;39611;46.062;8.950;2023-04-09T13:24:35;96607.06;;;14.91;42.26
52441;BME280;39611;46.062;8.950;2023-04-09T13:27:03;96603.88;;;14.89;43.17